Time;durP1;ratioP1;P1;durP2;ratioP2;P2;SDS_P1;SDS_P2;PMS_P1;PMS_P2;Temp;Humidity;BMP_temperature;BMP_pressure;BME280_temperature;BME280_humidity;BME280_pressure;Samples;Min_cycle;Max_cycle;Signal;HPM_P1;HPM_P2
2023/03/15 00:00:54;;;;;;;7.87;4.10;;;2.80;99.90;;;;;;5041966;28;20938;-73
2023/03/15 00:03:23;;;;;;;15.93;2.90;;;2.80;99.90;;;;;;5049798;28;20464;-73
2023/03/15 00:05:51;;;;;;;8.03;2.77;;;2.70;99.90;;;;;;5053349;28;20492;-72
2023/03/15 00:08:20;;;;;;;19.03;3.03;;;2.60;99.90;;;;;;5053879;28;20543;-73
2023/03/15 00:10:47;;;;;;;11.60;3.80;;;2.60;99.90;;;;;;5053401;28;20465;-73
2023/03/15 00:13:15;;;;;;;9.03;3.13;;;2.50;99.90;;;;;;5052801;28;20457;-73
2023/03/15 00:15:46;;;;;;;12.23;2.80;;;2.50;99.90;;;;;;5053542;28;20547;-72
2023/03/15 00:18:13;;;;;;;10.67;2.83;;;2.50;99.90;;;;;;5053379;28;20452;-73
2023/03/15 00:20:40;;;;;;;13.73;3.10;;;2.50;99.90;;;;;;5053200;28;20457;-72
2023/03/15 00:23:07;;;;;;;11.60;3.20;;;2.50;99.90;;;;;;5047339;28;20462;-72
2023/03/15 00:25:35;;;;;;;15.03;3.27;;;2.50;99.90;;;;;;5044614;28;20477;-72
2023/03/15 00:28:01;;;;;;;14.60;3.33;;;2.40;99.90;;;;;;5044032;28;20457;-72
2023/03/15 00:30:28;;;;;;;8.40;2.67;;;2.40;99.90;;;;;;5049149;28;20489;-72
2023/03/15 00:32:55;;;;;;;10.23;2.53;;;2.40;99.90;;;;;;5053135;28;20513;-73
2023/03/15 00:35:22;;;;;;;11.80;2.90;;;2.30;99.90;;;;;;5053110;28;20494;-72
2023/03/15 00:37:49;;;;;;;12.13;3.03;;;2.40;99.90;;;;;;5044231;28;20471;-72
2023/03/15 00:40:16;;;;;;;13.50;2.77;;;2.30;99.90;;;;;;5052695;28;20444;-72
2023/03/15 00:42:48;;;;;;;12.60;2.90;;;2.30;99.90;;;;;;5053070;28;20451;-72
2023/03/15 00:45:15;;;;;;;13.90;3.07;;;2.30;99.90;;;;;;5052515;28;20570;-72
2023/03/15 00:47:42;;;;;;;4.20;2.10;;;2.30;99.90;;;;;;5053030;28;20454;-72
2023/03/15 00:50:10;;;;;;;10.93;3.70;;;2.30;99.90;;;;;;5052432;28;21005;-72
2023/03/15 00:52:37;;;;;;;14.20;2.80;;;2.30;99.90;;;;;;5046864;28;20456;-72
2023/03/15 00:55:04;;;;;;;23.73;3.40;;;2.20;99.90;;;;;;5041821;28;21095;-72
2023/03/15 00:57:33;;;;;;;11.13;2.20;;;2.20;99.90;;;;;;5044112;28;20461;-74
2023/03/15 01:00:07;;;;;;;18.67;2.60;;;2.20;99.90;;;;;;5052316;28;20457;-72
2023/03/15 01:02:36;;;;;;;12.13;2.90;;;2.10;99.90;;;;;;5046073;28;20458;-73
2023/03/15 01:05:03;;;;;;;15.33;3.10;;;2.10;99.90;;;;;;5052109;28;20475;-72
2023/03/15 01:07:32;;;;;;;14.00;3.00;;;2.10;99.90;;;;;;5047791;28;20947;-72
2023/03/15 01:09:58;;;;;;;18.00;3.47;;;2.10;99.90;;;;;;5049079;28;20878;-72
2023/03/15 01:12:25;;;;;;;18.93;3.70;;;2.00;99.90;;;;;;5050208;28;20463;-72
2023/03/15 01:14:52;;;;;;;15.63;2.87;;;2.00;99.90;;;;;;5052234;28;20563;-72
2023/03/15 01:17:20;;;;;;;18.80;3.20;;;2.00;99.90;;;;;;5052332;28;20448;-72
2023/03/15 01:19:47;;;;;;;9.93;2.90;;;2.00;99.90;;;;;;5052229;28;20455;-72
2023/03/15 01:22:14;;;;;;;15.67;3.47;;;2.00;99.90;;;;;;5051494;28;20936;-72
2023/03/15 01:24:40;;;;;;;8.83;2.57;;;2.00;99.90;;;;;;5045683;28;21041;-72
2023/03/15 01:27:07;;;;;;;13.83;3.00;;;1.90;99.90;;;;;;5046063;28;20455;-72
2023/03/15 01:29:34;;;;;;;16.83;3.23;;;1.90;99.90;;;;;;5032983;28;20460;-72
2023/03/15 01:32:00;;;;;;;10.53;2.87;;;1.90;99.90;;;;;;5031755;28;21008;-72
2023/03/15 01:34:28;;;;;;;13.13;2.67;;;2.00;99.90;;;;;;5032517;28;20470;-72
2023/03/15 01:36:55;;;;;;;7.97;3.03;;;1.90;99.90;;;;;;5032013;28;20536;-72
2023/03/15 01:39:21;;;;;;;15.23;2.97;;;1.90;99.90;;;;;;5032212;28;20860;-73
2023/03/15 01:41:48;;;;;;;10.10;3.10;;;1.90;99.90;;;;;;5032099;28;20450;-72
2023/03/15 01:44:15;;;;;;;11.83;2.87;;;1.80;99.90;;;;;;5034472;28;20477;-72
2023/03/15 01:46:42;;;;;;;16.00;3.53;;;1.80;99.90;;;;;;5032976;28;20534;-72
2023/03/15 01:49:13;;;;;;;10.87;2.60;;;1.80;99.90;;;;;;5031880;28;20966;-72
2023/03/15 01:51:44;;;;;;;12.33;3.07;;;1.80;99.90;;;;;;5031906;28;21008;-72
2023/03/15 01:54:16;;;;;;;9.37;3.20;;;1.70;99.90;;;;;;5038530;28;20531;-72
2023/03/15 01:56:50;;;;;;;9.13;2.70;;;1.70;99.90;;;;;;5031264;28;21040;-72
2023/03/15 01:59:21;;;;;;;13.80;3.00;;;1.70;99.90;;;;;;5039823;28;20963;-72
2023/03/15 02:01:48;;;;;;;10.60;2.93;;;1.60;99.90;;;;;;5037674;28;20451;-72
2023/03/15 02:04:18;;;;;;;7.73;2.67;;;1.60;99.90;;;;;;5034845;28;20483;-72
2023/03/15 02:06:47;;;;;;;9.27;2.80;;;1.60;99.90;;;;;;5036687;28;20507;-72
2023/03/15 02:09:17;;;;;;;11.43;3.50;;;1.50;99.90;;;;;;5031692;28;20457;-72
2023/03/15 02:11:44;;;;;;;10.57;3.20;;;1.50;99.90;;;;;;5031707;28;20460;-72
2023/03/15 02:14:13;;;;;;;10.00;3.63;;;1.40;99.90;;;;;;5039683;28;20470;-72
2023/03/15 02:16:39;;;;;;;13.90;3.20;;;1.40;99.90;;;;;;5039914;28;20488;-72
2023/03/15 02:19:08;;;;;;;7.20;3.13;;;1.30;99.90;;;;;;5039033;28;21076;-72
2023/03/15 02:21:50;;;;;;;12.53;2.60;;;1.30;99.90;;;;;;5036126;28;20453;-71
2023/03/15 02:24:30;;;;;;;14.97;3.20;;;1.20;99.90;;;;;;5048040;28;20484;-72
2023/03/15 02:26:57;;;;;;;16.07;3.43;;;1.20;99.90;;;;;;5031433;28;20456;-72
2023/03/15 02:29:27;;;;;;;9.13;3.77;;;1.20;99.90;;;;;;5031274;28;20459;-71
2023/03/15 02:31:55;;;;;;;14.00;3.90;;;1.10;99.90;;;;;;5031205;28;20444;-72
2023/03/15 02:34:24;;;;;;;11.50;2.90;;;1.10;99.90;;;;;;5034750;28;20828;-71
2023/03/15 02:36:52;;;;;;;14.83;3.53;;;1.00;99.90;;;;;;5035726;28;20533;-71
2023/03/15 02:39:22;;;;;;;16.77;3.47;;;1.00;99.90;;;;;;5030960;28;20547;-72
2023/03/15 02:41:52;;;;;;;12.00;3.27;;;1.00;99.90;;;;;;5034798;28;20458;-71
2023/03/15 02:44:24;;;;;;;8.00;2.97;;;1.00;99.90;;;;;;5030857;28;20478;-71
2023/03/15 02:46:54;;;;;;;12.90;3.90;;;1.00;99.90;;;;;;5031858;28;20451;-71
2023/03/15 02:49:24;;;;;;;9.47;2.97;;;0.90;99.90;;;;;;5043333;28;20450;-72
2023/03/15 02:51:51;;;;;;;11.17;2.90;;;1.00;99.90;;;;;;5039714;28;20446;-72
2023/03/15 02:54:18;;;;;;;7.37;2.40;;;1.00;99.90;;;;;;5030864;28;20535;-72
2023/03/15 02:56:44;;;;;;;27.27;3.00;;;1.00;99.90;;;;;;5030988;28;20482;-72
2023/03/15 02:59:12;;;;;;;16.10;3.37;;;1.00;99.90;;;;;;5037845;28;20459;-72
2023/03/15 03:01:38;;;;;;;14.27;3.30;;;1.00;99.90;;;;;;5035355;28;20450;-72
2023/03/15 03:04:07;;;;;;;19.30;2.80;;;1.00;99.90;;;;;;5033098;28;20513;-72
2023/03/15 03:06:34;;;;;;;13.80;3.20;;;1.10;99.90;;;;;;5031157;28;20485;-72
2023/03/15 03:09:02;;;;;;;6.13;2.43;;;1.00;99.90;;;;;;5038702;28;20517;-72
2023/03/15 03:11:28;;;;;;;6.33;2.50;;;1.00;99.90;;;;;;5031004;28;20459;-72
2023/03/15 03:13:55;;;;;;;12.40;2.87;;;1.00;99.90;;;;;;5030903;28;20464;-71
2023/03/15 03:16:22;;;;;;;11.37;2.70;;;1.10;99.90;;;;;;5030854;28;20495;-71
2023/03/15 03:18:50;;;;;;;15.17;3.10;;;1.10;99.90;;;;;;5037755;28;20464;-72
2023/03/15 03:21:18;;;;;;;11.10;2.93;;;1.10;99.90;;;;;;5031544;28;20515;-71
2023/03/15 03:23:45;;;;;;;9.50;2.30;;;1.10;99.90;;;;;;5035341;28;20484;-72
2023/03/15 03:26:15;;;;;;;16.20;2.77;;;1.20;99.90;;;;;;5036463;28;20458;-71
2023/03/15 03:28:43;;;;;;;16.27;2.60;;;1.20;99.90;;;;;;5031231;28;20491;-71
2023/03/15 03:31:16;;;;;;;15.90;2.90;;;1.20;99.90;;;;;;5030499;28;20479;-71
2023/03/15 03:33:43;;;;;;;11.53;2.70;;;1.20;99.90;;;;;;5034533;28;20508;-71
2023/03/15 03:36:11;;;;;;;12.67;2.70;;;1.20;99.90;;;;;;5034084;28;20909;-71
2023/03/15 03:38:40;;;;;;;12.63;3.13;;;1.20;99.90;;;;;;5040087;28;20556;-72
2023/03/15 03:41:07;;;;;;;16.33;2.97;;;1.30;99.90;;;;;;5043872;28;20453;-72
2023/03/15 03:43:34;;;;;;;6.90;2.97;;;1.30;99.90;;;;;;5034349;28;21187;-71
2023/03/15 03:46:01;;;;;;;9.13;2.67;;;1.30;99.90;;;;;;5035174;28;20489;-71
2023/03/15 03:48:28;;;;;;;12.10;2.70;;;1.30;99.90;;;;;;5034411;28;20463;-72
2023/03/15 03:50:54;;;;;;;21.03;2.90;;;1.40;99.90;;;;;;5033873;28;20508;-72
2023/03/15 03:53:21;;;;;;;10.80;2.90;;;1.30;99.90;;;;;;5035518;28;20820;-72
2023/03/15 03:55:49;;;;;;;6.63;2.83;;;1.40;99.90;;;;;;5039500;28;20516;-71
2023/03/15 03:58:16;;;;;;;15.83;3.70;;;1.30;99.90;;;;;;5033624;28;20928;-71
2023/03/15 04:00:43;;;;;;;18.33;4.67;;;1.40;99.90;;;;;;5033651;28;20804;-71
2023/03/15 04:03:10;;;;;;;9.70;3.17;;;1.40;99.90;;;;;;5034685;28;20454;-72
2023/03/15 04:05:36;;;;;;;14.80;3.80;;;1.50;99.90;;;;;;5033982;28;20476;-72
2023/03/15 04:08:03;;;;;;;9.97;3.37;;;1.40;99.90;;;;;;5039454;28;20505;-71
2023/03/15 04:10:33;;;;;;;10.43;2.70;;;1.40;99.90;;;;;;5033774;28;20503;-71
2023/03/15 04:13:02;;;;;;;10.10;3.20;;;1.40;99.90;;;;;;5033984;28;20447;-71
2023/03/15 04:15:28;;;;;;;11.67;3.00;;;1.40;99.90;;;;;;5033405;28;20530;-72
2023/03/15 04:17:55;;;;;;;5.93;2.73;;;1.40;99.90;;;;;;5033845;28;20465;-71
2023/03/15 04:20:22;;;;;;;18.27;3.53;;;1.40;99.90;;;;;;5039269;28;20848;-71
2023/03/15 04:22:49;;;;;;;8.90;3.20;;;1.40;99.90;;;;;;5039438;28;20449;-71
2023/03/15 04:25:16;;;;;;;10.10;3.30;;;1.40;99.90;;;;;;5043396;28;20479;-71
2023/03/15 04:27:43;;;;;;;7.83;2.67;;;1.40;99.90;;;;;;5039045;28;20459;-72
2023/03/15 04:30:12;;;;;;;16.73;3.63;;;1.40;99.90;;;;;;5035378;28;20454;-72
2023/03/15 04:32:41;;;;;;;14.30;3.33;;;1.40;99.90;;;;;;5033623;28;20450;-71
2023/03/15 04:35:08;;;;;;;12.03;3.30;;;1.50;99.90;;;;;;5037880;28;20484;-71
2023/03/15 04:37:35;;;;;;;8.90;3.30;;;1.50;99.90;;;;;;5044268;28;20938;-71
2023/03/15 04:40:03;;;;;;;16.23;3.30;;;1.60;99.90;;;;;;5036951;28;20459;-71
2023/03/15 04:42:30;;;;;;;8.83;3.27;;;1.40;99.90;;;;;;5040634;28;20483;-72
2023/03/15 04:44:57;;;;;;;11.33;3.90;;;1.50;99.90;;;;;;5033790;28;20878;-71
2023/03/15 04:47:25;;;;;;;14.57;3.53;;;1.50;99.90;;;;;;5033676;28;20453;-72
2023/03/15 04:49:51;;;;;;;10.40;4.47;;;1.40;99.90;;;;;;5033290;28;20459;-72
2023/03/15 04:52:18;;;;;;;12.80;4.97;;;1.40;99.90;;;;;;5033050;28;20946;-72
2023/03/15 04:54:44;;;;;;;7.83;2.87;;;1.40;99.90;;;;;;5038818;28;20477;-72
2023/03/15 04:57:11;;;;;;;5.97;2.80;;;1.40;99.90;;;;;;5034429;28;21078;-72
2023/03/15 04:59:37;;;;;;;15.90;3.57;;;1.40;99.90;;;;;;5039112;28;20510;-71
2023/03/15 05:02:04;;;;;;;13.00;3.70;;;1.30;99.90;;;;;;5040652;28;20457;-71
2023/03/15 05:04:32;;;;;;;13.07;3.27;;;1.20;99.90;;;;;;5032882;28;20475;-72
2023/03/15 05:06:59;;;;;;;9.97;3.40;;;1.30;99.90;;;;;;5032640;28;20448;-72
2023/03/15 05:09:25;;;;;;;6.70;3.07;;;1.20;99.90;;;;;;5040897;28;20464;-72
2023/03/15 05:11:52;;;;;;;10.40;3.20;;;1.20;99.90;;;;;;5039073;28;20955;-72
2023/03/15 05:14:19;;;;;;;7.07;3.43;;;1.20;99.90;;;;;;5041846;28;20521;-72
2023/03/15 05:16:47;;;;;;;15.93;3.27;;;1.20;99.90;;;;;;5032595;28;20580;-71
2023/03/15 05:19:13;;;;;;;12.20;3.97;;;1.20;99.90;;;;;;5040702;28;20488;-72
2023/03/15 05:21:41;;;;;;;15.73;3.50;;;1.10;99.90;;;;;;5031992;28;20500;-72
2023/03/15 05:24:08;;;;;;;16.03;4.67;;;1.20;99.90;;;;;;5032484;28;20478;-72
2023/03/15 05:26:35;;;;;;;10.73;3.70;;;1.20;99.90;;;;;;5037321;28;20455;-72
2023/03/15 05:29:02;;;;;;;23.30;4.90;;;1.20;99.90;;;;;;5035316;28;20899;-72
2023/03/15 05:31:29;;;;;;;11.27;3.27;;;1.30;99.90;;;;;;5031983;28;20982;-72
2023/03/15 05:33:55;;;;;;;11.40;4.43;;;1.30;99.90;;;;;;5032234;28;20526;-72
2023/03/15 05:36:22;;;;;;;7.60;4.10;;;1.40;99.90;;;;;;5031725;28;20925;-73
2023/03/15 05:38:50;;;;;;;12.10;4.37;;;1.40;99.90;;;;;;5032038;28;20798;-73
2023/03/15 05:41:17;;;;;;;10.63;4.00;;;1.40;99.90;;;;;;5033761;28;20457;-72
2023/03/15 05:43:44;;;;;;;14.80;5.40;;;1.50;99.90;;;;;;5038099;28;20475;-72
2023/03/15 05:46:10;;;;;;;14.57;4.13;;;1.40;99.90;;;;;;5033639;28;20945;-72
2023/03/15 05:48:37;;;;;;;14.43;4.70;;;1.30;99.90;;;;;;5031821;28;20449;-72
2023/03/15 05:51:03;;;;;;;15.47;4.53;;;1.20;99.90;;;;;;5036784;28;20779;-72
2023/03/15 05:53:30;;;;;;;9.83;4.63;;;1.10;99.90;;;;;;5031662;28;20456;-72
2023/03/15 05:55:58;;;;;;;14.47;5.40;;;1.10;99.90;;;;;;5033568;28;20508;-74
2023/03/15 05:58:25;;;;;;;19.90;5.53;;;0.90;99.90;;;;;;5035012;28;20443;-74
2023/03/15 06:00:51;;;;;;;16.30;6.33;;;0.90;99.90;;;;;;5038836;28;20476;-74
2023/03/15 06:03:18;;;;;;;18.03;6.10;;;0.90;99.90;;;;;;5038747;28;20509;-75
2023/03/15 06:05:45;;;;;;;16.50;5.90;;;0.80;99.90;;;;;;5031926;28;20459;-74
2023/03/15 06:08:11;;;;;;;8.93;5.80;;;0.90;99.90;;;;;;5031259;28;21001;-73
2023/03/15 06:10:38;;;;;;;27.77;6.77;;;0.90;99.90;;;;;;5034803;28;20451;-75
2023/03/15 06:13:06;;;;;;;18.47;6.47;;;0.90;99.90;;;;;;5029814;28;20459;-74
2023/03/15 06:15:32;;;;;;;15.03;6.90;;;1.00;99.90;;;;;;5047425;28;20529;-75
2023/03/15 06:17:59;;;;;;;21.50;5.67;;;1.00;99.90;;;;;;5037862;28;20520;-74
2023/03/15 06:20:26;;;;;;;16.83;6.43;;;1.00;99.90;;;;;;5038586;28;20508;-74
2023/03/15 06:22:53;;;;;;;21.03;7.60;;;1.00;99.90;;;;;;5030193;28;20500;-75
2023/03/15 06:25:19;;;;;;;16.03;7.60;;;1.10;99.90;;;;;;5031131;28;20507;-75
2023/03/15 06:27:46;;;;;;;15.77;6.60;;;1.10;99.90;;;;;;5031249;28;20867;-75
2023/03/15 06:30:15;;;;;;;11.83;6.93;;;1.10;99.90;;;;;;5030818;28;20822;-75
2023/03/15 06:32:42;;;;;;;23.33;8.37;;;1.10;99.90;;;;;;5036105;28;20455;-75
2023/03/15 06:35:09;;;;;;;19.70;7.70;;;1.20;99.90;;;;;;5034269;28;20478;-75
2023/03/15 06:37:36;;;;;;;11.07;7.20;;;1.20;99.90;;;;;;5031435;28;20483;-75
2023/03/15 06:40:06;;;;;;;15.23;8.00;;;1.30;99.90;;;;;;5031107;28;20464;-75
2023/03/15 06:42:32;;;;;;;13.87;6.53;;;1.40;99.90;;;;;;5030928;28;20450;-76
2023/03/15 06:45:00;;;;;;;16.63;6.20;;;1.40;99.90;;;;;;5038159;28;20477;-74
2023/03/15 06:47:28;;;;;;;11.23;5.20;;;1.40;99.90;;;;;;5031758;28;21035;-75
2023/03/15 06:49:54;;;;;;;9.30;4.83;;;1.50;99.90;;;;;;5036612;28;20455;-73
2023/03/15 06:52:21;;;;;;;14.57;5.40;;;1.50;99.90;;;;;;5038257;28;20493;-73
2023/03/15 06:54:48;;;;;;;9.23;4.40;;;1.60;99.90;;;;;;5031482;28;20494;-73
2023/03/15 06:57:15;;;;;;;12.23;5.23;;;1.90;99.90;;;;;;5032608;28;20515;-73
2023/03/15 06:59:41;;;;;;;16.07;5.07;;;2.60;99.90;;;;;;5030936;28;20508;-73
2023/03/15 07:02:14;;;;;;;9.50;4.80;;;3.40;99.90;;;;;;5030663;28;20980;-75
2023/03/15 07:04:43;;;;;;;7.87;4.90;;;4.00;99.90;;;;;;5030581;28;20235;-75
2023/03/15 07:07:10;;;;;;;9.27;4.47;;;4.00;99.90;;;;;;5034753;28;20451;-77
2023/03/15 07:09:36;;;;;;;10.10;4.83;;;3.80;99.90;;;;;;5034914;28;20484;-75
2023/03/15 07:12:03;;;;;;;7.37;4.70;;;3.60;99.90;;;;;;5034536;28;20981;-77
2023/03/15 07:14:30;;;;;;;4.80;3.57;;;3.40;99.90;;;;;;5034837;28;20485;-75
2023/03/15 07:16:57;;;;;;;7.43;3.80;;;3.10;99.90;;;;;;5034806;28;20489;-75
2023/03/15 07:19:23;;;;;;;6.60;3.87;;;2.90;99.90;;;;;;5041364;28;20453;-75
2023/03/15 07:21:51;;;;;;;8.03;4.63;;;2.80;99.90;;;;;;5039648;28;20460;-75
2023/03/15 07:24:18;;;;;;;10.03;4.67;;;2.80;99.90;;;;;;5036971;28;20548;-76
2023/03/15 07:26:44;;;;;;;11.30;4.40;;;2.80;99.90;;;;;;5039661;28;20503;-75
2023/03/15 07:29:11;;;;;;;6.27;4.00;;;2.90;99.90;;;;;;5037573;28;20507;-76
2023/03/15 07:31:38;;;;;;;6.50;3.93;;;2.90;99.90;;;;;;5034536;28;20492;-75
2023/03/15 07:34:05;;;;;;;6.67;5.07;;;2.90;99.90;;;;;;5034291;28;20521;-76
2023/03/15 07:36:32;;;;;;;6.70;3.80;;;2.90;99.90;;;;;;5037226;28;20457;-74
2023/03/15 07:39:00;;;;;;;6.60;4.40;;;2.80;99.90;;;;;;5041251;28;20787;-75
2023/03/15 07:41:27;;;;;;;5.13;3.80;;;2.80;99.90;;;;;;5035286;28;20508;-77
2023/03/15 07:43:53;;;;;;;6.07;3.20;;;2.70;99.90;;;;;;5036912;28;20473;-74
2023/03/15 07:46:20;;;;;;;5.27;3.10;;;2.70;99.90;;;;;;5038839;28;20460;-75
2023/03/15 07:48:47;;;;;;;7.60;2.80;;;2.60;99.90;;;;;;5034047;28;20508;-74
2023/03/15 07:51:13;;;;;;;5.77;3.07;;;2.60;99.90;;;;;;5033772;28;20493;-77
2023/03/15 07:53:40;;;;;;;3.47;2.50;;;2.50;99.90;;;;;;5034273;28;20525;-75
2023/03/15 07:56:08;;;;;;;4.77;2.70;;;2.50;99.90;;;;;;5034321;28;20460;-74
2023/03/15 07:58:34;;;;;;;3.10;2.67;;;2.50;99.90;;;;;;5033302;28;20555;-74
2023/03/15 08:01:01;;;;;;;5.50;3.10;;;2.50;99.90;;;;;;5033329;28;21064;-74
2023/03/15 08:03:28;;;;;;;2.80;2.57;;;2.60;99.90;;;;;;5034391;28;20864;-76
2023/03/15 08:05:54;;;;;;;3.93;3.57;;;2.70;99.90;;;;;;5033678;28;20450;-75
2023/03/15 08:08:21;;;;;;;4.23;2.60;;;2.70;99.90;;;;;;5042321;28;20460;-74
2023/03/15 08:10:48;;;;;;;3.40;2.33;;;2.80;99.90;;;;;;5049535;28;20515;-74
2023/03/15 08:13:16;;;;;;;2.87;2.70;;;2.80;99.90;;;;;;5046622;28;20461;-75
2023/03/15 08:15:45;;;;;;;4.60;3.70;;;2.80;99.90;;;;;;5049923;28;20507;-75
2023/03/15 08:18:12;;;;;;;4.73;3.30;;;2.80;99.90;;;;;;5048566;28;21077;-74
2023/03/15 08:20:38;;;;;;;5.57;3.67;;;2.70;99.90;;;;;;5049299;28;20449;-74
2023/03/15 08:23:05;;;;;;;3.30;3.00;;;2.80;99.90;;;;;;5049691;28;20856;-76
2023/03/15 08:25:33;;;;;;;5.23;2.90;;;2.80;99.90;;;;;;5047896;28;20486;-75
2023/03/15 08:28:00;;;;;;;3.33;3.10;;;2.80;99.90;;;;;;5048759;28;20490;-76
2023/03/15 08:30:28;;;;;;;3.83;3.50;;;2.80;99.90;;;;;;5048866;28;20511;-76
2023/03/15 08:32:55;;;;;;;2.93;2.63;;;2.70;99.90;;;;;;5049545;28;20511;-74
2023/03/15 08:35:22;;;;;;;7.67;4.03;;;2.90;99.90;;;;;;5049089;28;20525;-75
2023/03/15 08:37:48;;;;;;;3.63;3.33;;;2.90;99.90;;;;;;5048748;28;20885;-75
2023/03/15 08:40:17;;;;;;;5.13;4.20;;;3.00;99.90;;;;;;5047956;28;20496;-75
2023/03/15 08:42:45;;;;;;;3.83;3.43;;;3.10;99.90;;;;;;5048977;28;20590;-74
2023/03/15 08:45:12;;;;;;;4.63;3.47;;;3.20;99.90;;;;;;5048200;28;20529;-74
2023/03/15 08:47:40;;;;;;;7.77;3.20;;;3.30;99.90;;;;;;5049403;28;20440;-75
2023/03/15 08:50:09;;;;;;;10.40;3.50;;;3.30;99.90;;;;;;5048330;28;20453;-75
2023/03/15 08:52:36;;;;;;;3.63;3.33;;;3.40;99.90;;;;;;5048147;28;20461;-74
2023/03/15 08:55:03;;;;;;;3.20;2.90;;;3.40;99.90;;;;;;5048465;28;20525;-76
2023/03/15 08:57:31;;;;;;;3.50;3.20;;;3.30;99.90;;;;;;5048288;28;20484;-74
2023/03/15 08:59:59;;;;;;;4.77;3.63;;;3.40;99.90;;;;;;5048538;28;20510;-74
2023/03/15 09:02:25;;;;;;;3.50;3.20;;;3.50;99.90;;;;;;5048129;28;20452;-75
2023/03/15 09:04:53;;;;;;;3.00;2.73;;;3.60;99.90;;;;;;5048191;28;21005;-75
2023/03/15 09:07:20;;;;;;;3.27;2.97;;;3.60;99.90;;;;;;5049770;28;20523;-75
2023/03/15 09:09:47;;;;;;;3.30;3.00;;;3.70;99.90;;;;;;5053363;28;20467;-74
2023/03/15 09:12:15;;;;;;;4.07;3.33;;;3.80;99.90;;;;;;5052647;28;20480;-74
2023/03/15 09:14:41;;;;;;;5.40;3.50;;;3.90;99.90;;;;;;5050062;28;20515;-74
2023/03/15 09:17:08;;;;;;;3.40;3.10;;;3.90;99.90;;;;;;5048756;28;20501;-75
2023/03/15 09:19:35;;;;;;;4.50;3.00;;;3.90;99.90;;;;;;5047988;28;20459;-74
2023/03/15 09:22:03;;;;;;;2.80;2.60;;;3.90;99.90;;;;;;5048452;28;20453;-75
2023/03/15 09:24:30;;;;;;;3.13;2.47;;;3.90;99.90;;;;;;5048410;28;20531;-75
2023/03/15 09:26:56;;;;;;;3.43;3.13;;;3.90;99.90;;;;;;5048645;28;20522;-75
2023/03/15 09:29:23;;;;;;;3.53;3.23;;;3.80;99.90;;;;;;5047777;28;20488;-75
2023/03/15 09:31:50;;;;;;;3.13;2.83;;;3.80;99.90;;;;;;5047970;28;20922;-74
2023/03/15 09:34:17;;;;;;;4.73;3.00;;;3.80;99.90;;;;;;5047659;28;20469;-77
2023/03/15 09:36:43;;;;;;;3.10;2.80;;;4.10;99.90;;;;;;5048379;28;20491;-71
2023/03/15 09:39:12;;;;;;;3.10;2.80;;;4.70;99.90;;;;;;5048143;28;20550;-74
2023/03/15 09:41:42;;;;;;;3.30;3.00;;;5.50;99.90;;;;;;5047857;28;20957;-74
2023/03/15 09:44:24;;;;;;;3.60;3.30;;;5.90;99.90;;;;;;5048585;28;20496;-77
2023/03/15 09:47:04;;;;;;;2.67;2.43;;;6.40;99.90;;;;;;5047524;28;20957;-74
2023/03/15 09:49:37;;;;;;;3.27;2.97;;;6.50;99.90;;;;;;5047812;28;20450;-75
2023/03/15 09:52:10;;;;;;;4.60;3.73;;;6.50;99.90;;;;;;5047731;28;20486;-75
2023/03/15 09:54:43;;;;;;;6.87;3.10;;;6.40;99.90;;;;;;5047399;28;20484;-74
2023/03/15 09:57:15;;;;;;;3.37;3.07;;;6.50;99.90;;;;;;5046712;28;20530;-77
2023/03/15 09:59:46;;;;;;;2.87;2.60;;;6.50;99.90;;;;;;5047683;28;20450;-74
2023/03/15 10:02:19;;;;;;;3.30;3.10;;;6.30;99.90;;;;;;5036770;28;21034;-75
2023/03/15 10:04:50;;;;;;;2.97;2.77;;;6.20;99.90;;;;;;5037805;28;20911;-75
2023/03/15 10:07:16;;;;;;;3.13;2.93;;;6.20;99.90;;;;;;5045929;28;20452;-77
2023/03/15 10:09:45;;;;;;;3.63;3.30;;;6.10;99.90;;;;;;5042749;28;20451;-75
2023/03/15 10:12:14;;;;;;;3.20;3.00;;;6.10;99.90;;;;;;5047430;28;20579;-75
2023/03/15 10:15:16;;;;;;;3.27;2.97;;;6.00;99.90;;;;;;5046661;28;20523;-75
2023/03/15 10:17:51;;;;;;;3.27;3.00;;;6.10;99.90;;;;;;5047644;28;20563;-74
2023/03/15 10:20:21;;;;;;;3.20;3.00;;;6.80;99.90;;;;;;5046494;28;20449;-76
2023/03/15 10:22:54;;;;;;;3.10;2.90;;;7.20;99.90;;;;;;5047525;28;20443;-74
2023/03/15 10:25:25;;;;;;;3.07;2.77;;;7.50;99.90;;;;;;5046346;28;20535;-74
2023/03/15 10:27:56;;;;;;;3.37;3.07;;;7.40;99.90;;;;;;5045544;28;20468;-75
2023/03/15 10:30:24;;;;;;;3.03;2.80;;;7.30;99.90;;;;;;5050383;28;20971;-74
2023/03/15 10:32:55;;;;;;;3.20;3.00;;;7.20;99.90;;;;;;5044199;28;20933;-74
2023/03/15 10:35:22;;;;;;;3.73;3.37;;;6.70;99.90;;;;;;5035257;28;20477;-75
2023/03/15 10:37:49;;;;;;;2.80;2.60;;;6.90;99.90;;;;;;5045018;28;20489;-74
2023/03/15 10:40:36;;;;;;;3.17;2.97;;;7.50;99.90;;;;;;5046130;28;20583;-74
2023/03/15 10:43:14;;;;;;;4.80;3.00;;;7.50;99.90;;;;;;5047688;28;20839;-75
2023/03/15 10:45:40;;;;;;;3.80;2.90;;;7.60;99.90;;;;;;5046269;28;20441;-75
2023/03/15 10:48:08;;;;;;;2.53;2.33;;;7.30;99.90;;;;;;5046953;28;20503;-75
2023/03/15 10:50:38;;;;;;;4.87;2.53;;;6.80;99.90;;;;;;5047134;28;20934;-75
2023/03/15 10:53:11;;;;;;;3.07;2.77;;;6.70;99.90;;;;;;5046504;28;20863;-75
2023/03/15 10:55:43;;;;;;;5.20;2.80;;;6.60;99.90;;;;;;5046808;28;20492;-75
2023/03/15 10:58:26;;;;;;;3.40;2.87;;;6.40;99.90;;;;;;5047064;28;20486;-74
2023/03/15 11:00:58;;;;;;;3.00;2.80;;;6.20;99.90;;;;;;5045985;28;21181;-74
2023/03/15 11:03:25;;;;;;;3.37;3.17;;;5.90;99.90;;;;;;5047042;28;20457;-74
2023/03/15 11:05:54;;;;;;;4.60;3.20;;;5.90;99.90;;;;;;5046977;28;20468;-74
2023/03/15 11:08:23;;;;;;;3.07;2.87;;;6.50;99.90;;;;;;5047086;28;20448;-79
2023/03/15 11:10:56;;;;;;;3.77;2.97;;;7.40;99.90;;;;;;5046671;28;20446;-76
2023/03/15 11:13:25;;;;;;;4.27;3.80;;;7.50;99.90;;;;;;5045703;28;20956;-74
2023/03/15 11:16:03;;;;;;;4.87;3.40;;;7.40;99.90;;;;;;5045339;28;20491;-75
2023/03/15 11:18:34;;;;;;;3.03;2.73;;;7.10;99.90;;;;;;5045798;28;20480;-74
2023/03/15 11:21:05;;;;;;;3.77;3.40;;;6.70;99.90;;;;;;5044888;28;20450;-74
2023/03/15 11:23:35;;;;;;;3.20;3.00;;;6.40;99.90;;;;;;5045845;28;20506;-73
2023/03/15 11:26:02;;;;;;;3.53;3.23;;;6.30;99.90;;;;;;5045132;28;20517;-74
2023/03/15 11:28:35;;;;;;;5.53;3.47;;;6.10;99.90;;;;;;5045016;28;20455;-76
2023/03/15 11:31:03;;;;;;;3.80;3.38;;;6.10;99.90;;;;;;5044734;28;20443;-75
2023/03/15 11:33:37;;;;;;;4.60;3.60;;;6.50;99.90;;;;;;5044770;28;20733;-75
2023/03/15 11:36:10;;;;;;;3.40;3.10;;;7.20;99.90;;;;;;5045434;28;20458;-73
2023/03/15 11:38:42;;;;;;;3.43;3.13;;;7.60;99.90;;;;;;5046441;28;20481;-74
2023/03/15 11:41:21;;;;;;;3.60;3.03;;;7.60;99.90;;;;;;5045456;28;20492;-74
2023/03/15 11:43:59;;;;;;;5.90;3.80;;;7.80;99.90;;;;;;5046128;28;20510;-74
2023/03/15 11:46:31;;;;;;;8.63;3.80;;;7.90;99.90;;;;;;5045296;28;20454;-73
2023/03/15 11:49:04;;;;;;;5.80;3.77;;;7.80;99.90;;;;;;5045933;28;20508;-73
2023/03/15 11:51:33;;;;;;;5.07;3.83;;;7.30;99.90;;;;;;5046161;28;20512;-73
2023/03/15 11:54:07;;;;;;;5.07;3.60;;;7.00;99.90;;;;;;5048778;28;20542;-76
2023/03/15 11:56:47;;;;;;;7.97;4.13;;;7.00;99.90;;;;;;5048780;28;21282;-75
2023/03/15 11:59:17;;;;;;;4.00;3.60;;;7.30;99.90;;;;;;5049835;28;20496;-74
2023/03/15 12:01:48;;;;;;;5.10;4.40;;;7.20;99.90;;;;;;5048285;28;20510;-76
2023/03/15 12:04:43;;;;;;;6.47;3.97;;;7.20;99.90;;;;;;5049498;28;20480;-75
2023/03/15 12:07:35;;;;;;;4.20;3.80;;;7.00;99.90;;;;;;5047357;28;20974;-75
2023/03/15 12:10:32;;;;;;;3.90;3.60;;;6.70;99.90;;;;;;5049479;28;21001;-75
2023/03/15 12:13:05;;;;;;;4.40;4.00;;;6.40;99.90;;;;;;5050011;28;20502;-75
2023/03/15 12:15:45;;;;;;;12.60;5.10;;;6.00;99.90;;;;;;5048350;28;20545;-75
2023/03/15 12:18:21;;;;;;;8.20;4.00;;;6.30;99.90;;;;;;5049724;28;20456;-75
2023/03/15 12:20:57;;;;;;;7.23;3.70;;;6.90;99.90;;;;;;5048556;28;20470;-76
2023/03/15 12:23:41;;;;;;;6.50;3.70;;;7.70;99.90;;;;;;5049331;28;20448;-75
2023/03/15 12:26:16;;;;;;;4.03;3.37;;;8.30;99.90;;;;;;5049727;28;20458;-75
2023/03/15 12:28:51;;;;;;;5.30;3.50;;;8.90;99.90;;;;;;5048984;28;20467;-74
2023/03/15 12:31:20;;;;;;;3.80;3.37;;;9.30;99.90;;;;;;5049328;28;20455;-76
2023/03/15 12:33:49;;;;;;;3.63;3.30;;;9.50;99.90;;;;;;5048878;28;20459;-75
2023/03/15 12:36:25;;;;;;;3.70;3.40;;;9.50;99.90;;;;;;5048343;28;20450;-74
2023/03/15 12:39:01;;;;;;;8.00;3.80;;;9.30;99.90;;;;;;5046872;28;21650;-77
2023/03/15 12:41:38;;;;;;;3.30;3.00;;;8.90;99.90;;;;;;5047010;28;20885;-75
2023/03/15 12:44:25;;;;;;;5.17;3.30;;;8.90;99.90;;;;;;5048320;28;20541;-76
2023/03/15 12:46:59;;;;;;;3.77;3.40;;;8.90;99.90;;;;;;5048615;28;20448;-75
2023/03/15 12:49:30;;;;;;;3.50;3.20;;;8.80;99.90;;;;;;5048919;28;20463;-77
2023/03/15 12:52:00;;;;;;;5.70;3.60;;;8.50;99.90;;;;;;5048492;28;20448;-75
2023/03/15 12:54:33;;;;;;;5.40;3.30;;;8.30;99.90;;;;;;5048552;28;20466;-75
2023/03/15 12:57:03;;;;;;;5.73;3.53;;;8.10;99.90;;;;;;5046943;28;20455;-75
2023/03/15 12:59:42;;;;;;;3.70;3.10;;;7.90;99.90;;;;;;5048490;28;20490;-75
2023/03/15 13:02:32;;;;;;;4.10;3.70;;;7.80;99.90;;;;;;5047841;28;20671;-73